LFBH/LRH METAR and TAF weather

Enter ICAO airport designator
Station Type Date Time Source
LFBH METAR 2020/09/19 17:30 UTC NOAA

LFBH 191730Z AUTO 21006KT 190V250 CAVOK 22/16 Q1011 NOSIG


Station Type Date Time Source
LFBH Decoded METAR 2020/09/19 17:30 UTC NOAA

La Rochelle, France (LFBH) 46-09N 001-09W 10M
Sep 19, 2020 - 01:30 PM EDT / 2020.09.19 1730 UTC
Wind: from the SSW (210 degrees) at 7 MPH (6 KT) (direction variable):0
Visibility: greater than 7 mile(s):0
Temperature: 71 F (22 C)
Dew Point: 60 F (16 C)
Relative Humidity: 68%
Pressure (altimeter): 29.85 in. Hg (1011 hPa)
ob: LFBH 191730Z AUTO 21006KT 190V250 CAVOK 22/16 Q1011 NOSIG
cycle: 17

Station Type Date Time Source
LFBH TAF 2020/09/19 18:21 UTC NOAA

TAF LFBH 191700Z 1918/2018 VRB03KT CAVOK
TEMPO 1921/2008 09010KT PROB30 2005/2008 3000 BR BKN003
BECMG 2012/2014 30010KT PROB40
TEMPO 2012/2018 3000 SHRA SCT030CB BKN040TCU

Example: see airport list